Aérodrome :
LOGIN :

S'inscrire | Disclaimer

   EN    FR    IT 

 










Légende :    VFR   VFR Marginal   IFR   IFR Intensif   IFR Très Intensif
Visi : 
Plafond : 
>= 8 km
>= 3000ft
5 à 8 km
1000 à 3000 ft
1500m à 5 km
500 à 1000 ft
800 à 1500m
200 à 500 ft
< 800m
< 200 ft
Symboles :   Orages  Brouillard  Fortes neiges  Fortes précipitations  Vent > 20 kt
SIGMETs :   Divers  Orages  Givrage  Turbulence  Onde Orograph.  Cendres Volcan.






- Altitude de l'aérodrome : 1504 ft
- Code IATA : PNA


LEPP - Noain Pamplona

DERNIER METAR :
  • 140100Z AUTO 17007KT 120V200 CAVOK 07/05 Q1002

METARs EXPIRÉS :
  • 140030Z AUTO 14006KT CAVOK 07/05 Q1003
  • 140000Z AUTO 14005KT 120V180 CAVOK 06/05 Q1004
  • 132330Z AUTO VRB02KT 9999 SCT045 06/05 Q1004
  • 132300Z 28002KT 9999 SCT045 06/05 Q1005
  • 132230Z VRB03KT 9999 BKN050 06/05 Q1005
  • 132200Z 30005KT 9999 SCT050 06/05 Q1005

TAF TAF LEPP
Valide du 13 à 21h jusqu'au 14 à 21h UTC


132000Z 1321/1421 24007KT 9999 SCT025 BKN045 TX08/1412Z TN05/1403Z
TEMPO 1323/1406 RA SHRA SCT030TCU
PROB40
TEMPO 1412/1415 3000 RA SHRA BKN014 SCT030TCU



MET'MAP, la Météo Aéronautique d'un coup d'oeil ! - Copyright ORBIFLY Décembre 2007 - Disclaimer

ORBIFLY MET'MAP TEAM :

Programmation & Développement : Alexandra Zaïnal
Conception & Développement : Baudouin d'Aumeries
Co-Programmation & Développement : Marc-Olivier Méhu
Soutien technique & logistique : Manuel Goepfert

Contact : metmap@orbifly.com




SOURCES & CREDITS :

   NOAA